createdAt,value
2023-05-18T00:01:22.847Z,60.34
2023-05-18T00:03:49.908Z,60.76
2023-05-18T00:06:17.499Z,60.18
2023-05-18T00:08:44.476Z,60.84
2023-05-18T00:11:11.388Z,60.51
2023-05-18T00:13:38.357Z,60.50
2023-05-18T00:16:05.393Z,61.20
2023-05-18T00:18:34.208Z,61.91
2023-05-18T00:21:01.971Z,61.54
2023-05-18T00:23:31.056Z,62.09
2023-05-18T00:26:02.581Z,61.62
2023-05-18T00:28:29.878Z,61.88
2023-05-18T00:30:57.507Z,61.47
2023-05-18T00:33:24.469Z,61.61
2023-05-18T00:35:51.429Z,62.01
2023-05-18T00:38:18.396Z,61.90
2023-05-18T00:40:45.380Z,62.83
2023-05-18T00:43:12.473Z,62.08
2023-05-18T00:45:39.433Z,62.43
2023-05-18T00:48:07.211Z,62.85
2023-05-18T00:50:34.967Z,62.96
2023-05-18T00:53:02.024Z,63.13
2023-05-18T00:55:29.183Z,63.25
2023-05-18T00:57:57.501Z,63.45
2023-05-18T01:00:25.048Z,63.04
2023-05-18T01:02:52.986Z,62.60
2023-05-18T01:05:22.279Z,62.88
2023-05-18T01:07:50.446Z,62.99
2023-05-18T01:10:19.941Z,63.25
2023-05-18T01:13:27.832Z,64.47
2023-05-18T01:15:57.427Z,64.20
2023-05-18T01:18:39.318Z,64.57
2023-05-18T01:21:19.339Z,64.33
2023-05-18T01:23:55.015Z,64.09
2023-05-18T01:26:31.781Z,64.80
2023-05-18T01:29:07.202Z,64.57
2023-05-18T01:31:34.723Z,64.56
2023-05-18T01:34:01.738Z,65.13
2023-05-18T01:36:28.633Z,65.30
2023-05-18T01:38:57.167Z,65.40
2023-05-18T01:41:25.596Z,65.84
2023-05-18T01:44:15.690Z,65.77
2023-05-18T01:47:04.726Z,65.71
2023-05-18T01:49:45.704Z,65.87
2023-05-18T01:52:20.683Z,66.39
2023-05-18T01:54:54.494Z,66.42
2023-05-18T01:57:28.371Z,66.86
2023-05-18T01:59:56.653Z,66.97
2023-05-18T02:02:23.646Z,66.98
2023-05-18T02:04:50.858Z,66.79
2023-05-18T02:07:17.908Z,67.11
2023-05-18T02:09:45.199Z,67.47
2023-05-18T02:12:12.617Z,67.59
2023-05-18T02:14:39.630Z,67.76
2023-05-18T02:17:07.226Z,67.91
2023-05-18T02:19:38.003Z,67.95
2023-05-18T02:22:06.907Z,68.12
2023-05-18T02:24:34.685Z,68.44
2023-05-18T02:27:02.050Z,68.46
2023-05-18T02:29:28.915Z,68.56
2023-05-18T02:31:55.928Z,68.91
2023-05-18T02:34:24.686Z,69.15
2023-05-18T02:36:51.654Z,68.76
2023-05-18T02:39:18.595Z,68.68
2023-05-18T02:41:45.701Z,69.12
2023-05-18T02:44:12.996Z,69.19
2023-05-18T02:46:39.927Z,69.14
2023-05-18T02:49:06.792Z,69.63
2023-05-18T02:51:33.790Z,69.16
2023-05-18T02:54:00.730Z,69.49
2023-05-18T02:56:28.707Z,69.25
2023-05-18T02:58:58.308Z,69.50
2023-05-18T03:01:27.126Z,69.41
2023-05-18T03:03:57.521Z,69.88
2023-05-18T03:06:26.737Z,69.74
2023-05-18T03:08:56.795Z,70.04
2023-05-18T03:11:24.695Z,70.62
2023-05-18T03:13:51.904Z,70.08
2023-05-18T03:16:18.837Z,70.34
2023-05-18T03:18:46.141Z,70.20
2023-05-18T03:21:13.698Z,70.42
2023-05-18T03:23:41.081Z,70.69
2023-05-18T03:26:11.406Z,70.59
2023-05-18T03:28:39.187Z,70.79
2023-05-18T03:31:06.320Z,70.78
2023-05-18T03:33:33.635Z,70.80
2023-05-18T03:36:05.097Z,71.22
2023-05-18T03:38:32.359Z,71.53
2023-05-18T03:40:59.269Z,71.40
2023-05-18T03:43:26.510Z,71.87
2023-05-18T03:45:53.776Z,71.50
2023-05-18T03:48:21.631Z,72.38
2023-05-18T03:50:48.925Z,72.04
2023-05-18T03:53:19.240Z,72.08
2023-05-18T03:55:46.406Z,72.38
2023-05-18T03:58:13.465Z,72.42
2023-05-18T04:00:40.597Z,73.02
2023-05-18T04:03:07.652Z,72.29
2023-05-18T04:05:34.596Z,73.03
2023-05-18T04:08:01.540Z,72.92
2023-05-18T04:10:28.427Z,73.15
2023-05-18T04:12:55.421Z,72.97
2023-05-18T04:15:22.507Z,73.07
2023-05-18T04:17:51.370Z,73.35
2023-05-18T04:20:19.275Z,72.58
2023-05-18T04:22:48.346Z,71.07
2023-05-18T04:25:16.100Z,70.47
2023-05-18T04:27:45.331Z,70.54
2023-05-18T04:30:13.406Z,69.12
2023-05-18T04:32:43.134Z,69.14
2023-05-18T04:35:11.818Z,68.43
2023-05-18T04:37:42.761Z,68.33
2023-05-18T04:40:20.428Z,68.17
2023-05-18T04:42:49.831Z,67.49
2023-05-18T04:45:28.333Z,67.96
2023-05-18T04:47:55.417Z,67.53
2023-05-18T04:50:28.879Z,66.88
2023-05-18T04:52:57.965Z,65.58
2023-05-18T04:55:33.479Z,65.57
2023-05-18T04:58:15.601Z,64.44
2023-05-18T05:00:43.184Z,64.45
2023-05-18T05:03:10.303Z,62.93
2023-05-18T05:05:37.282Z,63.63
2023-05-18T05:08:06.127Z,62.38
2023-05-18T05:10:33.068Z,62.72
2023-05-18T05:13:00.141Z,62.62
2023-05-18T05:15:27.453Z,61.60
2023-05-18T05:17:54.429Z,61.50
2023-05-18T05:20:21.518Z,60.94
2023-05-18T05:22:48.453Z,60.13
2023-05-18T05:25:16.047Z,59.86
2023-05-18T05:27:42.977Z,58.72
2023-05-18T05:30:10.634Z,58.65
2023-05-18T05:32:40.788Z,57.56
2023-05-18T05:35:08.082Z,57.36
2023-05-18T05:37:35.237Z,56.79
2023-05-18T05:40:02.135Z,55.49
2023-05-18T05:42:29.978Z,55.97
2023-05-18T05:44:56.932Z,55.07
2023-05-18T05:47:23.856Z,54.56
2023-05-18T05:49:50.899Z,54.81
2023-05-18T05:52:17.890Z,54.14
2023-05-18T05:54:44.916Z,52.89
2023-05-18T05:57:11.920Z,52.45
2023-05-18T05:59:38.892Z,51.77
2023-05-18T06:02:05.988Z,50.64
2023-05-18T06:04:33.127Z,49.87
2023-05-18T06:07:00.022Z,48.55
2023-05-18T06:09:27.021Z,48.13
2023-05-18T06:11:53.964Z,47.10
2023-05-18T06:14:21.346Z,46.27
2023-05-18T06:16:51.016Z,45.03
2023-05-18T06:19:18.081Z,44.03
2023-05-18T06:21:45.190Z,43.49
2023-05-18T06:24:12.053Z,42.93
2023-05-18T06:26:39.053Z,42.62
2023-05-18T06:29:20.550Z,42.16
2023-05-18T06:31:47.730Z,40.82
2023-05-18T06:34:14.701Z,40.48
2023-05-18T06:36:41.611Z,39.27
2023-05-18T06:39:08.657Z,38.67
2023-05-18T06:41:35.633Z,37.47
2023-05-18T06:44:03.732Z,36.88
2023-05-18T06:46:30.627Z,36.07
2023-05-18T06:48:57.656Z,35.47
2023-05-18T06:51:24.660Z,34.14
2023-05-18T06:53:51.599Z,33.51
2023-05-18T06:56:18.852Z,32.31
2023-05-18T06:58:46.046Z,32.29
2023-05-18T07:01:13.047Z,32.40
2023-05-18T07:03:40.210Z,31.84
2023-05-18T07:06:07.423Z,31.48
2023-05-18T07:08:39.190Z,30.42
2023-05-18T07:11:09.117Z,30.10
2023-05-18T07:13:38.879Z,29.10
2023-05-18T07:16:08.907Z,28.10
2023-05-18T07:18:39.860Z,27.46
2023-05-18T07:21:09.973Z,29.26
2023-05-18T07:23:37.065Z,29.16
2023-05-18T07:26:04.418Z,28.64
2023-05-18T07:28:31.654Z,28.35
2023-05-18T07:30:58.964Z,28.79
2023-05-18T07:33:26.437Z,28.49
2023-05-18T07:35:53.388Z,28.03
2023-05-18T07:38:22.301Z,28.31
2023-05-18T07:40:49.200Z,27.87
2023-05-18T07:43:16.137Z,27.06
2023-05-18T07:45:43.064Z,26.57
2023-05-18T07:48:10.847Z,26.65
2023-05-18T07:50:37.895Z,25.45
2023-05-18T07:53:04.969Z,24.83
2023-05-18T07:55:32.505Z,24.66
2023-05-18T07:58:01.046Z,23.94
2023-05-18T08:00:28.114Z,23.96
2023-05-18T08:02:55.235Z,24.81
2023-05-18T08:05:23.186Z,24.10
2023-05-18T08:07:53.127Z,23.12
2023-05-18T08:10:20.290Z,23.09
2023-05-18T08:12:47.214Z,22.28
2023-05-18T08:15:14.215Z,22.27
2023-05-18T08:17:41.779Z,21.40
2023-05-18T08:20:10.652Z,21.21
2023-05-18T08:22:37.768Z,21.83
2023-05-18T08:25:05.201Z,20.82
2023-05-18T08:27:32.083Z,21.41
2023-05-18T08:29:59.013Z,21.20
2023-05-18T08:32:26.191Z,21.44
2023-05-18T08:34:53.227Z,21.76
2023-05-18T08:37:21.259Z,21.40
2023-05-18T08:39:48.312Z,21.99
2023-05-18T08:42:51.076Z,22.27
2023-05-18T08:45:55.202Z,22.17
2023-05-18T08:48:25.638Z,21.05
2023-05-18T08:50:58.246Z,20.11
2023-05-18T08:53:25.839Z,19.78
2023-05-18T08:55:57.756Z,19.47
2023-05-18T08:58:44.184Z,18.80
2023-05-18T09:01:12.245Z,18.64
2023-05-18T09:03:40.177Z,17.95
2023-05-18T09:06:08.342Z,18.62
2023-05-18T09:08:35.838Z,20.42
2023-05-18T09:11:03.742Z,20.78
2023-05-18T09:13:33.619Z,19.36
2023-05-18T09:16:01.003Z,19.18
2023-05-18T09:18:28.571Z,18.89
2023-05-18T09:20:56.005Z,18.66
2023-05-18T09:23:23.936Z,18.07
2023-05-18T09:25:55.764Z,19.00
2023-05-18T09:28:30.348Z,19.75
2023-05-18T09:31:00.144Z,21.41
2023-05-18T09:33:35.659Z,22.53
2023-05-18T09:36:07.825Z,23.18
2023-05-18T09:38:40.533Z,22.83
2023-05-18T09:41:17.343Z,22.49
2023-05-18T09:43:46.401Z,22.52
2023-05-18T09:46:14.465Z,21.77
2023-05-18T09:48:47.902Z,21.91
2023-05-18T09:51:18.682Z,23.49
2023-05-18T09:53:58.659Z,24.49
2023-05-18T09:56:29.519Z,25.34
2023-05-18T09:58:56.844Z,25.64
2023-05-18T10:01:23.974Z,26.50
2023-05-18T10:03:51.415Z,27.32
2023-05-18T10:06:27.388Z,28.21
2023-05-18T10:08:59.278Z,28.78
2023-05-18T10:11:27.593Z,29.95
2023-05-18T10:14:15.532Z,30.44
2023-05-18T10:16:42.932Z,31.38
2023-05-18T10:19:12.534Z,31.79
2023-05-18T10:21:41.626Z,32.27
2023-05-18T10:24:11.404Z,32.59
2023-05-18T10:26:41.412Z,33.00
2023-05-18T10:29:09.665Z,31.58
2023-05-18T10:31:39.057Z,33.37
2023-05-18T10:34:09.135Z,32.85
2023-05-18T10:36:38.084Z,32.71
2023-05-18T10:39:06.401Z,32.82
2023-05-18T10:41:38.151Z,32.41
2023-05-18T10:44:06.431Z,32.31
2023-05-18T10:46:37.161Z,32.81
2023-05-18T10:49:07.473Z,33.08
2023-05-18T10:51:35.642Z,33.84
2023-05-18T10:54:14.598Z,33.37
2023-05-18T10:56:48.166Z,33.76
2023-05-18T10:59:18.825Z,33.27
2023-05-18T11:01:47.639Z,33.30
2023-05-18T11:04:14.759Z,34.38
2023-05-18T11:06:42.600Z,34.39
2023-05-18T11:09:24.035Z,35.09
2023-05-18T11:11:58.723Z,35.02
2023-05-18T11:14:34.840Z,35.95
2023-05-18T11:17:25.743Z,35.55
2023-05-18T11:20:12.788Z,34.48
2023-05-18T11:22:57.683Z,34.98
2023-05-18T11:25:24.477Z,36.18
2023-05-18T11:28:01.965Z,36.01
2023-05-18T11:30:50.554Z,34.72
2023-05-18T11:33:26.543Z,36.17
2023-05-18T11:36:09.105Z,36.01
2023-05-18T11:39:03.829Z,36.36
2023-05-18T11:41:39.494Z,36.89
2023-05-18T11:44:14.859Z,36.13
2023-05-18T11:47:01.529Z,36.06
2023-05-18T11:49:49.068Z,36.84
2023-05-18T11:52:24.602Z,35.85
2023-05-18T11:54:58.069Z,36.17
2023-05-18T11:57:27.554Z,36.03
2023-05-18T11:59:57.565Z,36.11
2023-05-18T12:02:32.721Z,36.51
2023-05-18T12:05:02.330Z,36.68
2023-05-18T12:07:32.169Z,36.65
2023-05-18T12:10:06.622Z,36.29
2023-05-18T12:12:34.238Z,36.14
2023-05-18T12:15:06.387Z,37.27
2023-05-18T12:17:50.020Z,35.88
2023-05-18T12:20:22.635Z,36.44
2023-05-18T12:22:53.824Z,35.71
2023-05-18T12:25:26.761Z,35.89
2023-05-18T12:27:55.298Z,35.66
2023-05-18T12:30:25.786Z,36.73
2023-05-18T12:32:57.421Z,36.63
2023-05-18T12:35:28.992Z,35.64
2023-05-18T12:38:00.256Z,35.77
2023-05-18T12:40:28.491Z,37.21
2023-05-18T12:42:56.875Z,36.64
2023-05-18T12:45:27.955Z,37.07
2023-05-18T12:47:56.240Z,36.24
2023-05-18T12:50:28.434Z,35.89
2023-05-18T12:52:58.702Z,35.95
2023-05-18T12:55:26.614Z,35.64
2023-05-18T12:58:18.191Z,36.96
2023-05-18T13:00:48.248Z,37.37
2023-05-18T13:03:21.680Z,34.96
2023-05-18T13:06:07.126Z,35.62
2023-05-18T13:08:36.119Z,37.21
2023-05-18T13:11:14.432Z,36.71
2023-05-18T13:14:03.348Z,36.06
2023-05-18T13:16:34.150Z,35.97
2023-05-18T13:19:04.488Z,35.70
2023-05-18T13:21:31.628Z,36.07
2023-05-18T13:23:58.681Z,36.91
2023-05-18T13:26:25.834Z,36.75
2023-05-18T13:28:55.973Z,36.88
2023-05-18T13:31:23.738Z,36.07
2023-05-18T13:33:51.351Z,36.88
2023-05-18T13:36:19.352Z,37.00
2023-05-18T13:38:46.443Z,37.78
2023-05-18T13:41:16.767Z,36.05
2023-05-18T13:43:43.703Z,35.81
2023-05-18T13:46:10.720Z,36.31
2023-05-18T13:48:37.830Z,35.36
2023-05-18T13:51:04.769Z,35.85
2023-05-18T13:53:31.897Z,35.95
2023-05-18T13:55:58.732Z,37.35
2023-05-18T13:58:25.668Z,37.96
2023-05-18T14:00:54.354Z,35.66
2023-05-18T14:03:21.558Z,37.51
2023-05-18T14:05:48.698Z,37.45
2023-05-18T14:08:15.759Z,37.02
2023-05-18T14:10:42.708Z,37.58
2023-05-18T14:13:09.776Z,37.02
2023-05-18T14:15:36.784Z,37.18
2023-05-18T14:18:04.207Z,36.25
2023-05-18T14:20:31.579Z,37.14
2023-05-18T14:22:59.065Z,36.48
2023-05-18T14:25:26.829Z,36.47
2023-05-18T14:27:53.713Z,36.67
2023-05-18T14:30:20.821Z,35.93
2023-05-18T14:32:47.834Z,36.11
2023-05-18T14:35:14.897Z,36.25
2023-05-18T14:37:41.802Z,36.95
2023-05-18T14:40:09.339Z,36.15
2023-05-18T14:42:37.075Z,35.59
2023-05-18T14:45:04.906Z,35.72
2023-05-18T14:47:31.983Z,34.92
2023-05-18T14:49:58.915Z,35.54
2023-05-18T14:52:26.204Z,36.42
2023-05-18T14:54:53.142Z,36.83
2023-05-18T14:57:20.137Z,36.09
2023-05-18T14:59:47.066Z,34.58
2023-05-18T15:02:14.134Z,35.56
2023-05-18T15:04:41.243Z,35.04
2023-05-18T15:07:08.577Z,36.01
2023-05-18T15:09:35.658Z,36.56
2023-05-18T15:12:02.982Z,36.30
2023-05-18T15:14:29.991Z,36.25
2023-05-18T15:16:58.584Z,35.89
2023-05-18T15:19:25.683Z,36.44
2023-05-18T15:21:52.776Z,36.60
2023-05-18T15:24:19.666Z,36.33
2023-05-18T15:26:46.587Z,36.28
2023-05-18T15:29:13.637Z,36.68
2023-05-18T15:31:40.875Z,36.72
2023-05-18T15:34:07.878Z,36.14
2023-05-18T15:36:36.309Z,36.24
2023-05-18T15:39:04.735Z,36.67
2023-05-18T15:41:34.738Z,36.64
2023-05-18T15:44:02.275Z,36.20
2023-05-18T15:46:35.494Z,36.40
2023-05-18T15:49:03.903Z,36.84
2023-05-18T15:51:31.391Z,36.50
2023-05-18T15:53:58.260Z,37.15
2023-05-18T15:56:25.699Z,36.86
2023-05-18T15:58:52.675Z,36.81
2023-05-18T16:01:19.642Z,36.68
2023-05-18T16:03:46.736Z,36.65
2023-05-18T16:06:13.905Z,37.20
2023-05-18T16:08:40.819Z,36.43
2023-05-18T16:11:07.713Z,36.72
2023-05-18T16:13:34.707Z,37.07
2023-05-18T16:16:03.097Z,37.21
2023-05-18T16:18:29.992Z,36.28
2023-05-18T16:20:56.916Z,36.36
2023-05-18T16:23:23.877Z,36.79
2023-05-18T16:25:51.015Z,37.00
2023-05-18T16:28:17.980Z,36.94
2023-05-18T16:30:44.983Z,36.97
2023-05-18T16:33:12.130Z,36.92
2023-05-18T16:35:39.437Z,36.80
2023-05-18T16:38:06.311Z,36.86
2023-05-18T16:40:33.458Z,36.63
2023-05-18T16:43:00.718Z,36.94
2023-05-18T16:45:28.003Z,36.80
2023-05-18T16:47:55.268Z,37.55
2023-05-18T16:50:22.314Z,36.95
2023-05-18T16:52:49.312Z,36.76
2023-05-18T16:55:16.277Z,37.33
2023-05-18T16:57:43.418Z,37.00
2023-05-18T17:00:11.431Z,36.86
2023-05-18T17:02:39.188Z,36.45
2023-05-18T17:05:08.419Z,36.79
2023-05-18T17:07:36.467Z,37.06
2023-05-18T17:10:06.887Z,36.93
2023-05-18T17:12:33.826Z,37.42
2023-05-18T17:15:02.578Z,37.40
2023-05-18T17:17:29.752Z,37.12
2023-05-18T17:19:56.885Z,38.02
2023-05-18T17:22:23.830Z,37.88
2023-05-18T17:24:50.796Z,37.04
2023-05-18T17:27:17.697Z,37.50
2023-05-18T17:29:44.626Z,37.44
2023-05-18T17:32:11.568Z,37.47
2023-05-18T17:34:38.450Z,37.79
2023-05-18T17:37:05.480Z,37.17
2023-05-18T17:39:32.568Z,37.22
2023-05-18T17:42:00.178Z,37.51
2023-05-18T17:44:27.511Z,37.04
2023-05-18T17:46:54.555Z,36.90
2023-05-18T17:49:21.554Z,37.01
2023-05-18T17:51:48.900Z,37.13
2023-05-18T17:54:16.050Z,37.40
2023-05-18T17:56:42.914Z,37.51
2023-05-18T17:59:09.864Z,37.57
2023-05-18T18:01:38.055Z,37.63
2023-05-18T18:04:05.241Z,37.67
2023-05-18T18:06:35.670Z,37.94
2023-05-18T18:09:04.576Z,39.46
2023-05-18T18:11:34.845Z,39.03
2023-05-18T18:14:04.049Z,38.39
2023-05-18T18:16:31.052Z,38.98
2023-05-18T18:19:00.646Z,39.19
2023-05-18T18:21:27.637Z,39.49
2023-05-18T18:23:54.613Z,39.04
2023-05-18T18:26:24.510Z,39.41
2023-05-18T18:28:51.544Z,39.28
2023-05-18T18:31:22.400Z,39.08
2023-05-18T18:33:52.141Z,39.38
2023-05-18T18:36:23.273Z,39.47
2023-05-18T18:38:55.070Z,39.54
2023-05-18T18:41:22.201Z,40.01
2023-05-18T18:43:49.308Z,39.90
2023-05-18T18:46:16.255Z,40.29
2023-05-18T18:48:47.313Z,40.38
2023-05-18T18:51:14.301Z,40.40
2023-05-18T18:53:44.095Z,40.98
2023-05-18T18:56:11.109Z,41.11
2023-05-18T18:58:39.157Z,41.00
2023-05-18T19:01:06.621Z,40.92
2023-05-18T19:03:40.970Z,40.92
2023-05-18T19:06:22.739Z,41.38
2023-05-18T19:08:52.049Z,41.02
2023-05-18T19:11:21.796Z,41.81
2023-05-18T19:13:48.926Z,41.25
2023-05-18T19:16:17.615Z,41.93
2023-05-18T19:18:45.353Z,41.60
2023-05-18T19:21:12.431Z,42.47
2023-05-18T19:23:39.296Z,43.21
2023-05-18T19:26:06.320Z,43.44
2023-05-18T19:28:33.308Z,44.22
2023-05-18T19:31:00.228Z,44.20
2023-05-18T19:33:27.163Z,44.51
2023-05-18T19:35:54.673Z,44.53
2023-05-18T19:38:21.689Z,44.68
2023-05-18T19:40:48.521Z,44.90
2023-05-18T19:43:16.940Z,45.90
2023-05-18T19:45:43.895Z,46.27
2023-05-18T19:48:12.211Z,46.70
2023-05-18T19:50:39.145Z,47.22
2023-05-18T19:53:06.058Z,48.64
2023-05-18T19:55:33.308Z,48.01
2023-05-18T19:58:00.338Z,49.08
2023-05-18T20:00:27.519Z,49.10
2023-05-18T20:02:54.521Z,49.20
2023-05-18T20:05:24.214Z,49.75
2023-05-18T20:07:51.547Z,50.39
2023-05-18T20:10:18.565Z,50.65
2023-05-18T20:12:45.494Z,50.36
2023-05-18T20:15:12.443Z,50.72
2023-05-18T20:17:39.539Z,50.58
2023-05-18T20:20:08.096Z,50.34
2023-05-18T20:22:34.998Z,50.67
2023-05-18T20:25:02.742Z,50.45
2023-05-18T20:27:29.622Z,51.13
2023-05-18T20:29:56.488Z,50.84
2023-05-18T20:32:23.430Z,51.35
2023-05-18T20:34:50.388Z,51.18
2023-05-18T20:37:17.361Z,51.58
2023-05-18T20:39:50.707Z,51.43
2023-05-18T20:42:22.005Z,51.94
2023-05-18T20:44:52.656Z,52.06
2023-05-18T20:47:20.625Z,52.13
2023-05-18T20:49:48.543Z,52.44
2023-05-18T20:52:15.815Z,52.51
2023-05-18T20:54:43.607Z,52.51
2023-05-18T20:57:10.670Z,52.70
2023-05-18T20:59:37.575Z,53.43
2023-05-18T21:02:05.075Z,53.14
2023-05-18T21:04:32.053Z,53.71
2023-05-18T21:06:59.037Z,53.83
2023-05-18T21:09:26.072Z,54.14
2023-05-18T21:11:53.003Z,53.34
2023-05-18T21:14:19.961Z,53.63
2023-05-18T21:16:46.973Z,53.83
2023-05-18T21:19:14.065Z,53.62
2023-05-18T21:21:41.031Z,53.07
2023-05-18T21:24:07.917Z,53.67
2023-05-18T21:26:35.111Z,54.19
2023-05-18T21:29:02.005Z,54.42
2023-05-18T21:31:29.007Z,54.56
2023-05-18T21:33:55.909Z,55.03
2023-05-18T21:36:33.785Z,54.94
2023-05-18T21:39:05.700Z,55.10
2023-05-18T21:41:35.213Z,55.44
2023-05-18T21:44:02.184Z,55.67
2023-05-18T21:46:29.261Z,55.22
2023-05-18T21:48:56.311Z,55.83
2023-05-18T21:51:23.417Z,56.18
2023-05-18T21:53:50.952Z,56.04
2023-05-18T21:56:18.103Z,56.47
2023-05-18T21:58:44.996Z,56.63
2023-05-18T22:01:11.972Z,56.56
2023-05-18T22:03:39.767Z,57.08
2023-05-18T22:06:06.826Z,56.89
2023-05-18T22:08:33.718Z,57.39
2023-05-18T22:11:00.613Z,57.21
2023-05-18T22:13:27.634Z,57.38
2023-05-18T22:15:54.645Z,57.35
2023-05-18T22:18:23.583Z,57.49
2023-05-18T22:20:50.589Z,57.64
2023-05-18T22:23:17.457Z,57.54
2023-05-18T22:25:45.530Z,57.47
2023-05-18T22:28:12.888Z,57.80
2023-05-18T22:30:40.001Z,57.73
2023-05-18T22:33:06.907Z,58.03
2023-05-18T22:35:36.641Z,57.93
2023-05-18T22:38:03.704Z,58.29
2023-05-18T22:40:30.855Z,58.56
2023-05-18T22:42:58.153Z,58.08
2023-05-18T22:45:25.089Z,58.77
2023-05-18T22:47:52.783Z,58.48
2023-05-18T22:50:19.878Z,58.90
2023-05-18T22:52:46.733Z,58.92
2023-05-18T22:55:13.902Z,58.58
2023-05-18T22:57:42.169Z,58.83
2023-05-18T23:00:12.720Z,59.01
2023-05-18T23:02:41.194Z,59.25
2023-05-18T23:05:09.049Z,58.75
2023-05-18T23:07:36.468Z,59.38
2023-05-18T23:10:07.235Z,59.00
2023-05-18T23:12:34.259Z,58.76
2023-05-18T23:15:03.715Z,58.97
2023-05-18T23:17:32.436Z,58.87
2023-05-18T23:20:06.735Z,58.92
2023-05-18T23:22:34.836Z,59.28
2023-05-18T23:25:04.603Z,59.24
2023-05-18T23:27:31.921Z,59.21
2023-05-18T23:29:58.852Z,59.08
2023-05-18T23:32:26.481Z,59.47
2023-05-18T23:34:54.001Z,59.08
2023-05-18T23:37:23.552Z,59.18
2023-05-18T23:39:54.327Z,59.13
2023-05-18T23:42:24.366Z,59.20
2023-05-18T23:44:51.671Z,59.01
2023-05-18T23:47:18.960Z,59.06
2023-05-18T23:49:48.369Z,58.97
2023-05-18T23:52:16.369Z,59.15
2023-05-18T23:54:45.558Z,59.47
2023-05-18T23:57:12.858Z,59.50
2023-05-18T23:59:41.942Z,59.70
